Time;durP1;ratioP1;P1;durP2;ratioP2;P2;SDS_P1;SDS_P2;PMS_P1;PMS_P2;Temp;Humidity;BMP_temperature;BMP_pressure;BME280_temperature;BME280_humidity;BME280_pressure;Samples;Min_cycle;Max_cycle;Signal;HPM_P1;HPM_P2
2021/08/23 00:00:08;;;;;;;10.52;7.60;;;18.50;93.20;;;;;;4841845;29;20132;-81
2021/08/23 00:02:35;;;;;;;10.82;8.38;;;18.50;93.00;;;;;;4842207;29;20422;-81
2021/08/23 00:05:01;;;;;;;10.35;7.88;;;18.50;93.20;;;;;;4842564;29;20046;-81
2021/08/23 00:07:26;;;;;;;10.57;8.25;;;18.50;93.20;;;;;;4841936;29;20064;-81
2021/08/23 00:09:52;;;;;;;11.02;8.05;;;18.50;93.30;;;;;;4841831;29;20531;-81
2021/08/23 00:12:18;;;;;;;10.60;7.95;;;18.40;93.00;;;;;;4842568;29;20053;-81
2021/08/23 00:14:44;;;;;;;10.38;7.68;;;18.40;92.90;;;;;;4841229;29;20118;-81
2021/08/23 00:17:10;;;;;;;8.63;7.15;;;18.40;93.00;;;;;;4842519;29;20057;-81
2021/08/23 00:19:35;;;;;;;9.23;7.30;;;18.40;93.00;;;;;;4842045;29;20053;-81
2021/08/23 00:22:20;;;;;;;9.32;7.22;;;18.40;93.20;;;;;;4841526;29;20054;-81
2021/08/23 00:24:50;;;;;;;8.98;7.00;;;18.40;93.20;;;;;;4851204;29;20494;-81
2021/08/23 00:27:16;;;;;;;10.10;7.70;;;18.40;93.20;;;;;;4860315;29;20160;-82
2021/08/23 00:29:43;;;;;;;9.88;7.35;;;18.40;93.30;;;;;;4860369;29;20128;-81
2021/08/23 00:32:09;;;;;;;9.90;7.10;;;18.40;93.30;;;;;;4860850;29;20094;-82
2021/08/23 00:34:35;;;;;;;9.43;7.25;;;18.40;93.40;;;;;;4859412;29;20053;-81
2021/08/23 00:37:01;;;;;;;10.55;7.30;;;18.40;93.30;;;;;;4860606;29;20064;-81
2021/08/23 00:39:26;;;;;;;12.52;8.00;;;18.30;93.00;;;;;;4859807;29;20490;-81
2021/08/23 00:41:52;;;;;;;10.88;7.30;;;18.30;93.00;;;;;;4858710;29;20522;-81
2021/08/23 00:44:18;;;;;;;10.73;7.55;;;18.30;93.20;;;;;;4844420;29;20054;-81
2021/08/23 00:46:43;;;;;;;9.85;7.25;;;18.30;93.20;;;;;;4841742;29;20086;-80
2021/08/23 00:49:09;;;;;;;11.38;7.60;;;18.30;93.30;;;;;;4841288;29;20078;-80
2021/08/23 00:51:35;;;;;;;10.57;7.47;;;18.30;93.50;;;;;;4841394;29;20061;-80
2021/08/23 00:54:00;;;;;;;9.18;7.47;;;18.30;93.50;;;;;;4842016;29;20578;-80
2021/08/23 00:56:26;;;;;;;10.48;7.30;;;18.30;93.60;;;;;;4841233;29;20050;-80
2021/08/23 00:58:53;;;;;;;9.75;7.05;;;18.30;93.60;;;;;;4841622;29;20551;-81
2021/08/23 01:01:33;;;;;;;9.60;7.55;;;18.20;93.40;;;;;;4842107;29;20491;-81
2021/08/23 01:04:07;;;;;;;9.68;7.22;;;18.20;93.40;;;;;;4840733;29;20073;-80
2021/08/23 01:06:33;;;;;;;10.20;7.47;;;18.20;93.50;;;;;;4840893;29;20085;-81
2021/08/23 01:09:07;;;;;;;10.40;7.43;;;18.20;93.60;;;;;;4841702;29;20270;-80
2021/08/23 01:11:45;;;;;;;8.77;7.00;;;18.20;93.50;;;;;;4840769;29;20054;-81
2021/08/23 01:14:11;;;;;;;11.77;7.07;;;18.20;93.20;;;;;;4855144;29;20058;-81
2021/08/23 01:16:37;;;;;;;10.75;7.35;;;18.20;93.30;;;;;;4858667;29;20057;-81
2021/08/23 01:19:04;;;;;;;11.18;7.07;;;18.20;93.40;;;;;;4860094;29;20049;-81
2021/08/23 01:21:31;;;;;;;12.18;7.10;;;18.20;93.10;;;;;;4860251;29;20053;-80
2021/08/23 01:24:01;;;;;;;9.05;6.43;;;18.10;92.90;;;;;;4859479;29;20070;-80
2021/08/23 01:26:35;;;;;;;11.18;7.00;;;18.10;92.90;;;;;;4846930;29;20516;-80
2021/08/23 01:29:10;;;;;;;9.25;6.35;;;18.10;93.00;;;;;;4841565;29;20408;-80
2021/08/23 01:32:01;;;;;;;10.88;6.80;;;18.10;93.10;;;;;;4840748;29;20399;-81
2021/08/23 01:34:27;;;;;;;10.60;6.40;;;18.10;93.10;;;;;;4841305;29;20056;-81
2021/08/23 01:36:53;;;;;;;11.25;6.47;;;18.10;93.20;;;;;;4841360;29;20408;-80
2021/08/23 01:39:20;;;;;;;9.05;6.10;;;18.00;93.10;;;;;;4840769;29;20062;-80
2021/08/23 01:41:46;;;;;;;9.35;6.82;;;18.00;93.10;;;;;;4841289;29;20050;-81
2021/08/23 01:44:12;;;;;;;9.60;6.32;;;18.00;93.40;;;;;;4841855;29;20050;-81
2021/08/23 01:46:38;;;;;;;9.93;6.63;;;17.90;93.40;;;;;;4840524;29;20054;-82
2021/08/23 01:49:06;;;;;;;9.15;6.10;;;17.90;93.60;;;;;;4841510;29;20052;-81
2021/08/23 01:51:32;;;;;;;9.02;6.25;;;17.90;93.50;;;;;;4842094;29;20046;-81
2021/08/23 01:53:59;;;;;;;12.55;6.05;;;18.00;93.60;;;;;;4844652;29;20082;-81
2021/08/23 01:56:29;;;;;;;8.70;5.68;;;17.90;93.40;;;;;;4844790;29;20061;-81
2021/08/23 01:58:55;;;;;;;10.95;6.32;;;17.90;93.40;;;;;;4843871;29;20491;-80
2021/08/23 02:01:21;;;;;;;8.27;5.82;;;17.90;93.40;;;;;;4844790;29;20054;-80
2021/08/23 02:03:48;;;;;;;9.00;5.65;;;17.90;93.50;;;;;;4844545;29;20056;-81
2021/08/23 02:06:15;;;;;;;7.80;5.72;;;17.90;93.50;;;;;;4843928;29;20075;-81
2021/08/23 02:08:41;;;;;;;7.90;5.70;;;17.90;93.60;;;;;;4844200;29;20498;-81
2021/08/23 02:11:06;;;;;;;9.40;5.88;;;17.90;93.60;;;;;;4844697;29;20057;-81
2021/08/23 02:13:32;;;;;;;8.90;5.93;;;17.90;93.60;;;;;;4854923;29;20060;-81
2021/08/23 02:15:58;;;;;;;8.00;5.50;;;17.90;93.70;;;;;;4862820;29;20052;-81
2021/08/23 02:18:23;;;;;;;8.30;5.43;;;17.90;93.60;;;;;;4862302;29;20061;-81
2021/08/23 02:20:49;;;;;;;9.57;5.43;;;17.90;93.40;;;;;;4861558;29;20049;-81
2021/08/23 02:23:14;;;;;;;8.65;5.00;;;17.90;93.70;;;;;;4863040;29;20114;-81
2021/08/23 02:25:40;;;;;;;8.82;5.15;;;17.90;93.60;;;;;;4862558;29;20104;-81
2021/08/23 02:28:06;;;;;;;8.52;5.00;;;17.90;93.60;;;;;;4851971;29;20479;-81
2021/08/23 02:30:32;;;;;;;7.53;4.45;;;17.90;93.70;;;;;;4844055;29;20057;-81
2021/08/23 02:32:58;;;;;;;8.95;5.53;;;17.90;93.50;;;;;;4844354;29;20054;-81
2021/08/23 02:35:24;;;;;;;7.55;4.82;;;17.80;93.60;;;;;;4843527;29;20117;-81
2021/08/23 02:37:49;;;;;;;12.15;4.65;;;17.80;93.50;;;;;;4843654;29;20062;-82
2021/08/23 02:40:15;;;;;;;8.20;4.63;;;17.80;93.20;;;;;;4844417;29;20049;-82
2021/08/23 02:42:41;;;;;;;6.90;4.63;;;17.80;93.30;;;;;;4847442;29;20080;-82
2021/08/23 02:45:07;;;;;;;9.13;4.55;;;17.80;93.50;;;;;;4862110;29;20414;-81
2021/08/23 02:47:36;;;;;;;6.72;4.68;;;17.80;93.40;;;;;;4862063;29;20053;-81
2021/08/23 02:50:07;;;;;;;8.18;4.30;;;17.80;93.40;;;;;;4861114;29;20487;-81
2021/08/23 02:52:34;;;;;;;7.70;4.47;;;17.70;93.10;;;;;;4861378;29;20120;-81
2021/08/23 02:54:59;;;;;;;7.70;4.60;;;17.70;93.10;;;;;;4861119;29;20054;-81
2021/08/23 02:57:25;;;;;;;8.43;4.15;;;17.70;93.10;;;;;;4861223;29;20065;-81
2021/08/23 02:59:51;;;;;;;7.53;4.30;;;17.70;93.30;;;;;;4858098;29;20053;-81
2021/08/23 03:02:16;;;;;;;9.48;4.50;;;17.70;93.20;;;;;;4842532;29;20106;-81
2021/08/23 03:04:42;;;;;;;7.53;4.43;;;17.70;93.40;;;;;;4842714;29;20076;-81
2021/08/23 03:07:08;;;;;;;7.72;4.30;;;17.70;93.20;;;;;;4843921;29;20050;-81
2021/08/23 03:09:33;;;;;;;7.82;4.43;;;17.70;93.50;;;;;;4842688;29;20058;-81
2021/08/23 03:11:59;;;;;;;7.60;4.13;;;17.70;93.60;;;;;;4843636;29;20070;-81
2021/08/23 03:14:25;;;;;;;7.10;4.20;;;17.70;93.70;;;;;;4843446;29;20136;-81
2021/08/23 03:16:51;;;;;;;7.32;3.75;;;17.70;93.70;;;;;;4842319;29;20425;-81
2021/08/23 03:19:16;;;;;;;7.88;4.03;;;17.60;93.80;;;;;;4843288;29;20513;-81
2021/08/23 03:21:42;;;;;;;8.35;4.50;;;17.70;93.80;;;;;;4842803;29;20058;-81
2021/08/23 03:24:08;;;;;;;7.35;4.00;;;17.70;93.60;;;;;;4842640;29;20046;-81
2021/08/23 03:26:33;;;;;;;5.65;3.53;;;17.70;94.00;;;;;;4842430;29;20054;-81
2021/08/23 03:28:59;;;;;;;6.68;3.72;;;17.60;93.60;;;;;;4860391;29;20049;-81
2021/08/23 03:31:25;;;;;;;6.10;3.65;;;17.70;93.70;;;;;;4860888;29;20058;-81
2021/08/23 03:33:51;;;;;;;5.97;3.97;;;17.70;93.70;;;;;;4861277;29;20064;-81
2021/08/23 03:36:16;;;;;;;8.00;3.95;;;17.70;93.90;;;;;;4861744;29;20054;-82
2021/08/23 03:38:42;;;;;;;5.50;3.55;;;17.70;93.70;;;;;;4860342;29;20090;-81
2021/08/23 03:41:10;;;;;;;6.32;3.80;;;17.60;93.70;;;;;;4861667;29;20482;-81
2021/08/23 03:43:36;;;;;;;8.10;3.90;;;17.60;93.80;;;;;;4860588;29;20093;-81
2021/08/23 03:46:01;;;;;;;7.68;4.10;;;17.60;93.80;;;;;;4860599;29;20088;-81
2021/08/23 03:48:27;;;;;;;13.20;4.22;;;17.60;93.50;;;;;;4848568;29;20089;-81
2021/08/23 03:50:53;;;;;;;6.43;3.78;;;17.60;93.20;;;;;;4842848;29;20053;-82
2021/08/23 03:53:18;;;;;;;6.20;3.65;;;17.50;93.40;;;;;;4841946;29;20106;-81
2021/08/23 03:55:44;;;;;;;6.90;3.80;;;17.60;93.50;;;;;;4842562;29;20062;-81
2021/08/23 03:58:10;;;;;;;9.05;3.97;;;17.50;93.80;;;;;;4841813;29;20053;-81
2021/08/23 04:00:35;;;;;;;6.75;3.90;;;17.50;93.90;;;;;;4842553;29;20133;-81
2021/08/23 04:03:01;;;;;;;5.97;3.65;;;17.50;94.00;;;;;;4842547;29;20060;-81
2021/08/23 04:05:27;;;;;;;6.78;3.38;;;17.50;94.00;;;;;;4842061;29;20046;-80
2021/08/23 04:07:53;;;;;;;6.05;3.78;;;17.50;94.00;;;;;;4842360;29;20054;-80
2021/08/23 04:10:19;;;;;;;7.53;3.95;;;17.40;93.70;;;;;;4842516;29;20062;-81
2021/08/23 04:12:45;;;;;;;5.60;3.83;;;17.40;93.70;;;;;;4841432;29;20517;-81
2021/08/23 04:15:11;;;;;;;8.20;3.50;;;17.40;93.90;;;;;;4841651;29;20050;-80
2021/08/23 04:17:36;;;;;;;5.65;3.58;;;17.40;93.60;;;;;;4847275;29;20505;-81
2021/08/23 04:20:03;;;;;;;5.55;3.30;;;17.40;93.70;;;;;;4846082;29;20054;-81
2021/08/23 04:22:29;;;;;;;7.57;3.90;;;17.30;93.70;;;;;;4842834;29;20148;-80
2021/08/23 04:24:54;;;;;;;5.57;3.45;;;17.30;93.50;;;;;;4841833;29;20501;-80
2021/08/23 04:27:20;;;;;;;8.07;3.40;;;17.30;93.50;;;;;;4841683;29;20061;-80
2021/08/23 04:29:46;;;;;;;9.15;4.00;;;17.30;93.20;;;;;;4841992;29;20064;-81
2021/08/23 04:32:11;;;;;;;8.13;3.75;;;17.20;93.20;;;;;;4842047;29;20058;-81
2021/08/23 04:34:38;;;;;;;8.27;3.83;;;17.20;93.20;;;;;;4841085;29;20071;-81
2021/08/23 04:37:04;;;;;;;6.75;3.80;;;17.20;93.30;;;;;;4842123;29;20072;-81
2021/08/23 04:39:31;;;;;;;7.30;3.88;;;17.20;93.60;;;;;;4842348;29;20049;-81
2021/08/23 04:41:57;;;;;;;7.90;3.78;;;17.20;93.70;;;;;;4841527;29;20521;-81
2021/08/23 04:44:23;;;;;;;6.78;3.50;;;17.20;93.80;;;;;;4842673;29;20211;-81
2021/08/23 04:46:49;;;;;;;7.00;3.70;;;17.10;93.80;;;;;;4860032;29;20051;-81
2021/08/23 04:49:16;;;;;;;7.80;3.90;;;17.10;93.90;;;;;;4858158;29;20417;-81
2021/08/23 04:51:42;;;;;;;7.00;3.83;;;17.10;94.00;;;;;;4860765;29;20193;-80
2021/08/23 04:54:07;;;;;;;6.75;3.53;;;17.10;94.00;;;;;;4860325;29;20058;-81
2021/08/23 04:56:33;;;;;;;13.07;3.78;;;17.10;94.10;;;;;;4859469;29;20064;-81
2021/08/23 04:58:59;;;;;;;9.30;3.67;;;17.10;93.70;;;;;;4860017;29;20056;-81
2021/08/23 05:01:24;;;;;;;6.97;3.88;;;17.10;93.80;;;;;;4857826;29;20054;-81
2021/08/23 05:03:50;;;;;;;5.97;3.30;;;17.00;93.90;;;;;;4860281;29;20547;-81
2021/08/23 05:06:16;;;;;;;5.35;3.28;;;17.00;93.60;;;;;;4859810;29;20063;-81
2021/08/23 05:08:42;;;;;;;6.90;3.63;;;17.00;93.80;;;;;;4858958;29;20506;-81
2021/08/23 05:11:08;;;;;;;7.05;3.47;;;17.00;93.70;;;;;;4860501;29;20062;-81
2021/08/23 05:13:34;;;;;;;8.05;3.80;;;17.00;93.80;;;;;;4859814;29;20057;-80
2021/08/23 05:16:00;;;;;;;9.10;3.75;;;17.00;94.00;;;;;;4859499;29;20053;-80
2021/08/23 05:18:26;;;;;;;8.05;3.35;;;17.00;93.90;;;;;;4847191;29;20512;-81
2021/08/23 05:20:51;;;;;;;9.90;3.97;;;16.90;93.70;;;;;;4841980;29;20060;-81
2021/08/23 05:23:18;;;;;;;11.55;3.38;;;16.90;93.60;;;;;;4841305;29;20078;-81
2021/08/23 05:25:43;;;;;;;8.00;3.30;;;16.90;93.40;;;;;;4855023;29;20464;-81
2021/08/23 05:28:09;;;;;;;6.85;3.00;;;16.90;93.30;;;;;;4863508;29;20077;-82
2021/08/23 05:30:35;;;;;;;6.95;3.10;;;16.90;93.20;;;;;;4862727;29;20050;-82
2021/08/23 05:33:01;;;;;;;8.43;3.70;;;16.80;93.10;;;;;;4863711;29;20486;-80
2021/08/23 05:35:27;;;;;;;14.27;3.17;;;16.80;93.20;;;;;;4867063;29;20061;-93
2021/08/23 05:37:53;;;;;;;9.88;3.30;;;16.80;93.20;;;;;;4865320;29;20134;-92
2021/08/23 05:40:23;;;;;;;13.55;3.30;;;16.80;93.40;;;;;;4866931;29;20053;-94
2021/08/23 05:42:52;;;;;;;7.78;3.30;;;16.80;93.50;;;;;;4846896;29;20422;-80
2021/08/23 05:45:19;;;;;;;9.05;3.58;;;16.70;93.70;;;;;;4844379;29;20069;-81
2021/08/23 05:47:45;;;;;;;6.68;3.40;;;16.70;93.70;;;;;;4844986;29;20495;-79
2021/08/23 05:50:11;;;;;;;13.30;3.17;;;16.70;93.90;;;;;;4845374;29;20057;-80
2021/08/23 05:52:36;;;;;;;9.75;3.17;;;16.70;93.80;;;;;;4844305;29;20050;-81
2021/08/23 05:55:03;;;;;;;7.22;3.10;;;16.70;93.70;;;;;;4844848;29;20057;-81
2021/08/23 05:57:28;;;;;;;8.85;3.05;;;16.70;93.60;;;;;;4855712;29;20057;-80
2021/08/23 05:59:55;;;;;;;9.15;3.30;;;16.70;93.80;;;;;;4856133;29;20136;-81
2021/08/23 06:02:20;;;;;;;7.07;3.10;;;16.60;93.70;;;;;;4860854;29;20041;-81
2021/08/23 06:04:46;;;;;;;8.07;2.92;;;16.70;93.80;;;;;;4860396;29;20050;-80
2021/08/23 06:07:14;;;;;;;7.60;3.03;;;16.70;93.70;;;;;;4845037;29;20054;-80
2021/08/23 06:09:40;;;;;;;7.38;3.08;;;16.70;93.80;;;;;;4845351;29;20050;-80
2021/08/23 06:12:07;;;;;;;5.55;2.85;;;16.70;93.80;;;;;;4849709;29;20057;-80
2021/08/23 06:14:33;;;;;;;8.00;3.13;;;16.80;94.10;;;;;;4862982;29;20058;-81
2021/08/23 06:16:59;;;;;;;9.23;3.03;;;16.70;94.10;;;;;;4862780;29;20053;-80
2021/08/23 06:19:24;;;;;;;7.82;3.22;;;16.80;94.00;;;;;;4856997;29;20050;-81
2021/08/23 06:21:50;;;;;;;5.82;3.00;;;16.80;94.10;;;;;;4856023;29;20065;-80
2021/08/23 06:24:16;;;;;;;6.85;2.80;;;16.90;94.20;;;;;;4863124;29;20056;-80
2021/08/23 06:26:41;;;;;;;5.45;2.60;;;16.90;94.10;;;;;;4844141;29;20053;-81
2021/08/23 06:29:08;;;;;;;8.15;3.10;;;16.90;94.00;;;;;;4844863;29;20066;-81
2021/08/23 06:31:35;;;;;;;6.05;2.63;;;17.00;93.90;;;;;;4859712;29;20049;-81
2021/08/23 06:34:02;;;;;;;7.10;2.70;;;17.00;93.90;;;;;;4862025;29;20053;-81
2021/08/23 06:36:32;;;;;;;7.80;3.17;;;17.10;94.00;;;;;;4862120;29;20084;-82
2021/08/23 06:38:57;;;;;;;5.85;2.58;;;17.10;93.90;;;;;;4843079;29;20546;-81
2021/08/23 06:41:25;;;;;;;4.60;2.45;;;17.10;93.90;;;;;;4857383;29;20064;-81
2021/08/23 06:43:50;;;;;;;6.78;2.60;;;17.20;93.80;;;;;;4861979;29;20053;-81
2021/08/23 06:46:17;;;;;;;6.03;2.65;;;17.30;93.90;;;;;;4852317;29;20068;-82
2021/08/23 06:48:43;;;;;;;6.55;2.67;;;17.30;94.00;;;;;;4861667;29;20050;-81
2021/08/23 06:51:09;;;;;;;7.90;2.72;;;17.30;93.80;;;;;;4862466;29;20135;-81
2021/08/23 06:53:34;;;;;;;9.48;3.20;;;17.40;93.70;;;;;;4862012;29;20058;-81
2021/08/23 06:56:00;;;;;;;10.02;3.15;;;17.40;93.70;;;;;;4861487;29;20429;-81
2021/08/23 06:58:40;;;;;;;7.60;2.92;;;17.50;93.70;;;;;;4862295;29;20080;-81
2021/08/23 07:01:06;;;;;;;9.40;3.00;;;17.60;93.70;;;;;;4861685;29;20085;-81
2021/08/23 07:03:31;;;;;;;5.47;2.67;;;17.60;93.70;;;;;;4861394;29;20045;-81
2021/08/23 07:06:04;;;;;;;7.22;2.53;;;17.70;93.70;;;;;;4862000;29;20117;-80
2021/08/23 07:08:32;;;;;;;7.13;2.50;;;17.70;93.70;;;;;;4863147;29;20048;-80
2021/08/23 07:10:58;;;;;;;7.22;2.63;;;17.80;93.70;;;;;;4878596;29;20057;-81
2021/08/23 07:13:24;;;;;;;8.95;2.78;;;17.90;93.60;;;;;;4880572;29;20053;-81
2021/08/23 07:15:49;;;;;;;6.97;2.15;;;17.90;93.40;;;;;;4879233;29;20045;-81
2021/08/23 07:18:15;;;;;;;5.88;2.30;;;18.00;93.40;;;;;;4879045;29;20056;-81
2021/08/23 07:20:41;;;;;;;11.00;2.58;;;18.00;93.30;;;;;;4877134;29;20510;-81
2021/08/23 07:23:06;;;;;;;7.72;2.05;;;18.00;93.20;;;;;;4870682;29;20049;-81
2021/08/23 07:25:35;;;;;;;9.23;2.33;;;18.10;93.10;;;;;;4861730;29;20108;-81
2021/08/23 07:28:01;;;;;;;11.48;2.50;;;18.10;93.20;;;;;;4861820;29;20132;-81
2021/08/23 07:30:28;;;;;;;6.32;2.38;;;18.10;93.00;;;;;;4861200;29;20046;-81
2021/08/23 07:32:53;;;;;;;6.45;2.38;;;18.20;92.90;;;;;;4861282;29;20061;-81
2021/08/23 07:35:19;;;;;;;5.68;1.98;;;18.20;92.90;;;;;;4861427;29;20061;-81
2021/08/23 07:37:47;;;;;;;9.13;2.53;;;18.20;93.00;;;;;;4860378;29;20068;-81
2021/08/23 07:40:13;;;;;;;9.32;2.30;;;18.20;92.80;;;;;;4866023;29;20500;-81
2021/08/23 07:42:40;;;;;;;6.05;2.20;;;18.30;92.90;;;;;;4861275;29;20068;-80
2021/08/23 07:45:06;;;;;;;6.65;2.13;;;18.30;93.00;;;;;;4860894;29;20072;-81
2021/08/23 07:47:34;;;;;;;6.03;2.10;;;18.30;93.00;;;;;;4861473;29;20057;-81
2021/08/23 07:50:00;;;;;;;7.15;2.25;;;18.30;93.00;;;;;;4861067;29;20144;-81
2021/08/23 07:52:26;;;;;;;5.75;2.00;;;18.40;92.90;;;;;;4858792;29;20268;-80
2021/08/23 07:54:51;;;;;;;6.03;1.90;;;18.50;93.00;;;;;;4869452;29;20521;-81
2021/08/23 07:57:17;;;;;;;5.57;1.83;;;18.50;93.00;;;;;;4864195;29;20061;-81
2021/08/23 07:59:43;;;;;;;5.05;2.05;;;18.60;92.90;;;;;;4857263;29;20498;-81
2021/08/23 08:02:08;;;;;;;7.68;1.58;;;18.60;92.80;;;;;;4854746;29;20046;-82
2021/08/23 08:04:34;;;;;;;5.00;1.50;;;18.70;92.50;;;;;;4848340;29;20060;-81
2021/08/23 08:06:59;;;;;;;4.35;1.80;;;18.70;92.60;;;;;;4877907;29;20053;-81
2021/08/23 08:09:25;;;;;;;4.18;1.60;;;18.80;92.60;;;;;;4857498;29;20105;-81
2021/08/23 08:11:51;;;;;;;8.23;1.73;;;18.90;92.60;;;;;;4853753;29;20058;-82
2021/08/23 08:14:16;;;;;;;6.32;2.08;;;19.00;92.30;;;;;;4850155;29;20050;-81
2021/08/23 08:16:42;;;;;;;4.57;1.58;;;19.00;92.30;;;;;;4860350;29;20053;-82
2021/08/23 08:19:08;;;;;;;4.78;1.67;;;19.10;92.50;;;;;;4858923;29;20069;-81
2021/08/23 08:21:33;;;;;;;6.50;1.38;;;19.20;92.40;;;;;;4860271;29;20069;-82
2021/08/23 08:23:59;;;;;;;5.53;1.67;;;19.20;92.00;;;;;;4860670;29;20053;-81
2021/08/23 08:26:25;;;;;;;6.13;1.70;;;19.30;92.00;;;;;;4848864;29;20058;-81
2021/08/23 08:28:54;;;;;;;4.75;1.52;;;19.30;91.50;;;;;;4856469;29;20050;-80
2021/08/23 08:31:20;;;;;;;6.50;1.80;;;19.40;91.80;;;;;;4860278;29;20513;-80
2021/08/23 08:33:47;;;;;;;3.17;1.40;;;19.40;91.60;;;;;;4859651;29;20054;-81
2021/08/23 08:36:16;;;;;;;7.88;1.90;;;19.50;91.90;;;;;;4851465;29;20460;-81
2021/08/23 08:38:42;;;;;;;6.00;1.42;;;19.50;91.40;;;;;;4847212;29;20077;-80
2021/08/23 08:41:08;;;;;;;6.53;1.70;;;19.60;91.30;;;;;;4859747;29;20458;-81
2021/08/23 08:43:34;;;;;;;5.15;1.50;;;19.60;91.10;;;;;;4857735;29;20406;-81
2021/08/23 08:46:16;;;;;;;4.85;1.55;;;19.70;90.60;;;;;;4855188;29;20136;-81
2021/08/23 08:48:45;;;;;;;5.22;1.70;;;19.70;91.40;;;;;;4852087;29;20450;-81
2021/08/23 08:51:14;;;;;;;2.95;1.13;;;19.90;91.60;;;;;;4860220;29;20080;-81
2021/08/23 08:53:40;;;;;;;5.00;1.63;;;19.90;91.30;;;;;;4859294;29;20132;-82
2021/08/23 08:56:05;;;;;;;3.30;1.40;;;19.90;90.40;;;;;;4856786;29;20136;-81
2021/08/23 08:58:33;;;;;;;5.82;1.40;;;19.90;90.20;;;;;;4843720;29;20050;-80
2021/08/23 09:01:01;;;;;;;4.95;1.73;;;20.00;90.00;;;;;;4859894;29;20054;-81
2021/08/23 09:03:29;;;;;;;4.47;1.50;;;20.00;88.80;;;;;;4866488;29;20049;-81
2021/08/23 09:06:02;;;;;;;3.95;1.60;;;20.10;89.10;;;;;;4863687;29;20064;-81
2021/08/23 09:08:31;;;;;;;;;;;20.10;86.90;;;;;;4866250;29;20050;-81
2021/08/23 09:11:11;;;;;;;4.82;1.35;;;20.10;86.80;;;;;;4866627;29;19924;-82
2021/08/23 09:13:39;;;;;;;4.30;1.30;;;20.20;88.70;;;;;;4866354;29;20059;-82
2021/08/23 09:16:06;;;;;;;3.47;1.35;;;20.30;90.10;;;;;;4864909;29;20057;-81
2021/08/23 09:18:36;;;;;;;4.63;1.50;;;20.40;89.30;;;;;;4866235;29;20049;-81
2021/08/23 09:21:07;;;;;;;3.72;1.48;;;20.50;89.30;;;;;;4862025;29;20073;-81
2021/08/23 09:23:40;;;;;;;4.80;1.42;;;20.60;90.20;;;;;;4853923;29;20053;-81
2021/08/23 09:26:17;;;;;;;;;;;20.60;89.80;;;;;;4848487;29;20402;-81
2021/08/23 09:29:06;;;;;;;4.20;1.38;;;20.60;88.90;;;;;;4845707;29;19924;-83
2021/08/23 09:31:39;;;;;;;6.28;1.67;;;20.70;89.50;;;;;;4847474;29;20642;-82
2021/08/23 09:34:11;;;;;;;5.03;1.60;;;20.80;89.80;;;;;;4852090;29;20410;-81
2021/08/23 09:36:42;;;;;;;3.95;1.40;;;20.90;89.50;;;;;;4856786;29;20465;-81
2021/08/23 09:39:15;;;;;;;5.00;1.60;;;21.00;89.70;;;;;;4866697;29;20068;-81
2021/08/23 09:41:41;;;;;;;5.07;1.40;;;21.10;89.30;;;;;;4848753;29;20411;-81
2021/08/23 09:44:08;;;;;;;4.97;1.48;;;21.10;87.80;;;;;;4847093;29;20058;-81
2021/08/23 09:46:35;;;;;;;4.68;1.48;;;21.20;85.80;;;;;;4864132;29;20072;-81
2021/08/23 09:49:03;;;;;;;3.45;1.35;;;21.20;87.20;;;;;;4865980;29;20049;-81
2021/08/23 09:51:36;;;;;;;;;;;21.30;87.90;;;;;;4865860;29;20060;-79
2021/08/23 09:54:18;;;;;;;3.67;1.40;;;21.30;86.80;;;;;;4864617;29;19963;-81
2021/08/23 09:56:55;;;;;;;3.75;1.35;;;21.40;87.70;;;;;;4863945;29;20501;-80
2021/08/23 09:59:24;;;;;;;4.47;1.52;;;21.50;88.50;;;;;;4871416;29;20211;-80
2021/08/23 10:01:55;;;;;;;5.95;1.30;;;21.50;88.00;;;;;;4863890;29;20057;-81
2021/08/23 10:04:28;;;;;;;3.20;1.08;;;21.60;88.80;;;;;;4873105;23;20046;-96
2021/08/23 10:06:57;;;;;;;6.70;1.30;;;21.70;83.70;;;;;;4867538;29;20060;-91
2021/08/23 10:13:08;;;;;;;5.50;1.40;;;21.70;84.70;;;;;;4864316;29;20046;-89
2021/08/23 10:19:03;;;;;;;4.10;1.58;;;21.80;80.80;;;;;;4869589;23;20109;-90
2021/08/23 10:21:39;;;;;;;5.47;1.20;;;21.80;83.60;;;;;;4864772;29;20065;-93
2021/08/23 10:24:07;;;;;;;4.20;1.27;;;21.80;79.20;;;;;;4863796;29;20049;-92
2021/08/23 10:26:40;;;;;;;3.03;1.00;;;21.90;78.90;;;;;;4862178;29;20053;-82
2021/08/23 10:29:08;;;;;;;3.45;1.20;;;21.90;80.30;;;;;;4863247;29;20054;-82
2021/08/23 10:31:36;;;;;;;5.13;1.17;;;22.00;82.10;;;;;;4857024;29;20455;-82
2021/08/23 10:34:16;;;;;;;3.45;1.30;;;22.10;79.30;;;;;;4865847;29;20053;-96
2021/08/23 10:36:46;;;;;;;4.45;1.30;;;22.10;82.50;;;;;;4870915;29;20140;-95
2021/08/23 10:39:24;;;;;;;4.53;1.25;;;22.20;79.50;;;;;;4867521;29;20049;-93
2021/08/23 10:41:52;;;;;;;3.65;1.20;;;22.30;81.20;;;;;;4873494;29;20537;-92
2021/08/23 10:44:29;;;;;;;3.13;1.20;;;22.30;79.10;;;;;;4873300;29;20124;-95
2021/08/23 10:47:14;;;;;;;3.35;1.20;;;22.20;78.60;;;;;;4876351;29;20057;-95
2021/08/23 10:49:47;;;;;;;4.03;1.30;;;22.20;77.70;;;;;;4873077;29;20509;-96
2021/08/23 10:52:17;;;;;;;3.33;1.10;;;22.30;81.70;;;;;;4874558;29;20053;-94
2021/08/23 10:54:49;;;;;;;3.75;1.50;;;22.40;82.70;;;;;;4870009;29;20106;-95
2021/08/23 10:57:20;;;;;;;4.15;1.17;;;22.50;83.40;;;;;;4867208;29;20054;-95
2021/08/23 10:59:52;;;;;;;4.25;1.30;;;22.50;77.60;;;;;;4865371;29;20057;-92
2021/08/23 11:02:26;;;;;;;3.55;1.40;;;22.60;80.40;;;;;;4862821;29;20082;-93
2021/08/23 11:05:01;;;;;;;2.85;1.20;;;22.70;81.70;;;;;;4878111;29;20059;-94
2021/08/23 11:07:28;;;;;;;3.50;1.20;;;22.70;82.20;;;;;;4885395;29;20482;-94
2021/08/23 11:10:05;;;;;;;4.53;1.40;;;22.80;80.60;;;;;;4868535;29;20053;-95
2021/08/23 11:12:40;;;;;;;4.80;1.55;;;22.80;76.40;;;;;;4867277;29;20049;-94
2021/08/23 11:15:16;;;;;;;5.82;1.42;;;22.80;72.90;;;;;;4867076;29;20498;-94
2021/08/23 11:17:48;;;;;;;3.85;1.58;;;22.90;73.20;;;;;;4874817;29;20112;-94
2021/08/23 11:20:26;;;;;;;3.77;1.53;;;22.90;71.10;;;;;;4875104;29;20502;-95
2021/08/23 11:22:57;;;;;;;4.78;1.40;;;22.80;72.40;;;;;;4856593;29;20038;-96
2021/08/23 11:25:35;;;;;;;5.68;1.60;;;22.90;76.20;;;;;;4851105;29;20064;-96
2021/08/23 11:28:11;;;;;;;3.80;1.48;;;22.90;75.30;;;;;;4850237;29;20081;-95
2021/08/23 11:30:46;;;;;;;5.72;1.60;;;23.00;74.80;;;;;;4850054;29;20054;-96
2021/08/23 11:33:22;;;;;;;3.05;1.30;;;23.00;73.80;;;;;;4867159;29;20057;-96
2021/08/23 11:35:48;;;;;;;3.58;1.60;;;23.10;76.10;;;;;;4867470;29;20049;-93
2021/08/23 11:38:14;;;;;;;5.50;1.73;;;23.10;75.00;;;;;;4868442;29;20138;-95
2021/08/23 11:40:43;;;;;;;4.65;1.50;;;23.10;75.50;;;;;;4863016;29;20061;-95
2021/08/23 11:43:09;;;;;;;2.72;1.20;;;23.20;75.70;;;;;;4853290;29;20054;-96
2021/08/23 11:45:38;;;;;;;3.47;1.50;;;23.30;78.90;;;;;;4860822;29;20053;-93
2021/08/23 11:48:05;;;;;;;5.47;1.42;;;23.40;79.60;;;;;;4867139;29;20060;-91
2021/08/23 11:50:31;;;;;;;6.50;1.60;;;23.50;76.00;;;;;;4866653;29;20053;-93
2021/08/23 11:53:05;;;;;;;3.47;1.40;;;23.50;76.30;;;;;;4863884;29;20041;-92
2021/08/23 11:55:35;;;;;;;3.97;1.20;;;23.60;72.20;;;;;;4864183;29;20082;-93
2021/08/23 11:58:11;;;;;;;2.97;1.30;;;23.70;70.70;;;;;;4867558;29;20053;-93
2021/08/23 12:00:38;;;;;;;3.70;1.10;;;23.70;73.60;;;;;;4863606;29;20084;-94
2021/08/23 12:03:16;;;;;;;3.20;1.40;;;23.70;72.00;;;;;;4867138;29;20110;-90
2021/08/23 12:05:43;;;;;;;4.72;1.52;;;23.80;74.00;;;;;;4865773;29;20057;-91
2021/08/23 12:08:20;;;;;;;2.97;1.27;;;23.80;75.70;;;;;;4868699;29;20076;-93
2021/08/23 12:10:54;;;;;;;3.53;1.33;;;23.80;70.90;;;;;;4863828;29;20053;-90
2021/08/23 12:13:25;;;;;;;3.05;1.20;;;23.80;73.10;;;;;;4863289;29;20053;-91
2021/08/23 12:15:58;;;;;;;3.25;1.38;;;23.90;76.40;;;;;;4846206;29;20089;-90
2021/08/23 12:18:42;;;;;;;4.78;1.60;;;24.00;77.70;;;;;;4859897;29;20474;-93
2021/08/23 12:21:41;;;;;;;4.53;1.30;;;24.00;76.10;;;;;;4860184;29;20054;-91
2021/08/23 12:24:20;;;;;;;3.00;1.30;;;24.10;75.00;;;;;;4856284;29;20081;-94
2021/08/23 12:26:57;;;;;;;3.25;1.15;;;24.10;76.70;;;;;;4852748;29;20046;-96
2021/08/23 12:29:36;;;;;;;3.85;1.40;;;24.30;77.60;;;;;;4848577;29;20058;-91
2021/08/23 12:32:09;;;;;;;2.90;1.20;;;24.30;76.00;;;;;;4868322;29;20089;-90
2021/08/23 12:34:41;;;;;;;3.28;1.20;;;24.30;75.90;;;;;;4869444;29;20057;-92
2021/08/23 12:37:07;;;;;;;;;;;24.30;77.10;;;;;;4868121;29;20144;-91
2021/08/23 12:39:33;;;;;;;4.57;1.35;;;24.30;77.10;;;;;;4867853;29;19955;-93
2021/08/23 12:42:05;;;;;;;4.32;1.60;;;24.50;76.20;;;;;;4869457;29;20045;-90
2021/08/23 12:44:32;;;;;;;;;;;24.50;71.70;;;;;;4875037;29;20058;-91
2021/08/23 12:46:58;;;;;;;4.47;1.40;;;24.40;72.50;;;;;;4875784;29;20364;-89
2021/08/23 12:49:24;;;;;;;2.58;1.27;;;24.40;73.30;;;;;;4869326;29;20049;-90
2021/08/23 12:51:50;;;;;;;4.57;1.42;;;24.50;75.70;;;;;;4862347;29;20122;-90
2021/08/23 12:54:17;;;;;;;4.90;1.30;;;24.50;74.20;;;;;;4862282;29;20048;-89
2021/08/23 12:56:42;;;;;;;2.75;1.10;;;24.60;72.80;;;;;;4861598;29;20057;-90
2021/08/23 12:59:08;;;;;;;3.58;1.27;;;24.60;75.70;;;;;;4866971;29;20055;-91